createdAt,value
2023-09-02T00:01:22.915Z,100.00
2023-09-02T00:03:53.408Z,100.00
2023-09-02T00:06:20.591Z,99.86
2023-09-02T00:08:47.434Z,99.81
2023-09-02T00:11:14.544Z,99.68
2023-09-02T00:13:41.876Z,100.00
2023-09-02T00:16:09.310Z,100.00
2023-09-02T00:18:36.219Z,100.00
2023-09-02T00:21:03.566Z,100.00
2023-09-02T00:23:32.924Z,100.00
2023-09-02T00:26:00.191Z,100.00
2023-09-02T00:28:27.300Z,100.00
2023-09-02T00:30:54.872Z,100.00
2023-09-02T00:33:22.970Z,100.00
2023-09-02T00:35:50.735Z,100.00
2023-09-02T00:38:18.162Z,100.00
2023-09-02T00:40:52.274Z,100.00
2023-09-02T00:43:19.742Z,100.00
2023-09-02T00:45:47.047Z,100.00
2023-09-02T00:48:14.808Z,100.00
2023-09-02T00:50:41.657Z,100.00
2023-09-02T00:53:09.184Z,100.00
2023-09-02T00:55:36.113Z,100.00
2023-09-02T00:58:03.234Z,100.00
2023-09-02T01:00:30.737Z,100.00
2023-09-02T01:03:00.124Z,100.00
2023-09-02T01:05:27.680Z,100.00
2023-09-02T01:07:55.480Z,100.00
2023-09-02T01:10:24.101Z,100.00
2023-09-02T01:12:51.968Z,100.00
2023-09-02T01:15:19.217Z,100.00
2023-09-02T01:17:46.178Z,100.00
2023-09-02T01:20:15.120Z,100.00
2023-09-02T01:23:01.043Z,100.00
2023-09-02T01:25:55.376Z,100.00
2023-09-02T01:28:29.658Z,100.00
2023-09-02T01:30:56.820Z,100.00
2023-09-02T01:33:28.267Z,100.00
2023-09-02T01:35:59.088Z,100.00
2023-09-02T01:38:28.572Z,100.00
2023-09-02T01:40:57.975Z,100.00
2023-09-02T01:43:26.011Z,100.00
2023-09-02T01:45:54.111Z,100.00
2023-09-02T01:48:21.408Z,100.00
2023-09-02T01:50:48.664Z,100.00
2023-09-02T01:53:16.211Z,100.00
2023-09-02T01:55:43.864Z,100.00
2023-09-02T01:58:12.342Z,100.00
2023-09-02T02:00:42.052Z,100.00
2023-09-02T02:03:21.994Z,100.00
2023-09-02T02:05:54.181Z,100.00
2023-09-02T02:08:32.518Z,100.00
2023-09-02T02:11:00.881Z,100.00
2023-09-02T02:13:27.766Z,100.00
2023-09-02T02:15:55.638Z,100.00
2023-09-02T02:18:22.748Z,100.00
2023-09-02T02:21:09.105Z,100.00
2023-09-02T02:23:36.140Z,100.00
2023-09-02T02:26:04.592Z,100.00
2023-09-02T02:28:32.001Z,100.00
2023-09-02T02:31:02.674Z,100.00
2023-09-02T02:33:29.749Z,100.00
2023-09-02T02:35:56.724Z,100.00
2023-09-02T02:38:23.914Z,100.00
2023-09-02T02:40:51.343Z,100.00
2023-09-02T02:43:18.792Z,100.00
2023-09-02T02:45:46.120Z,100.00
2023-09-02T02:48:17.031Z,100.00
2023-09-02T02:50:44.609Z,100.00
2023-09-02T02:53:12.932Z,100.00
2023-09-02T02:55:40.056Z,100.00
2023-09-02T02:58:07.411Z,100.00
2023-09-02T03:00:34.849Z,100.00
2023-09-02T03:03:04.895Z,100.00
2023-09-02T03:05:38.545Z,100.00
2023-09-02T03:08:08.297Z,100.00
2023-09-02T03:10:37.065Z,100.00
2023-09-02T03:13:05.876Z,100.00
2023-09-02T03:15:33.598Z,100.00
2023-09-02T03:18:01.789Z,100.00
2023-09-02T03:20:32.132Z,100.00
2023-09-02T03:22:59.339Z,100.00
2023-09-02T03:25:28.618Z,100.00
2023-09-02T03:27:56.254Z,100.00
2023-09-02T03:30:23.719Z,100.00
2023-09-02T03:32:51.424Z,100.00
2023-09-02T03:35:19.026Z,100.00
2023-09-02T03:37:46.335Z,100.00
2023-09-02T03:40:13.599Z,100.00
2023-09-02T03:42:40.988Z,100.00
2023-09-02T03:45:10.967Z,100.00
2023-09-02T03:47:38.717Z,100.00
2023-09-02T03:50:08.277Z,100.00
2023-09-02T03:52:35.650Z,100.00
2023-09-02T03:55:03.139Z,100.00
2023-09-02T03:57:32.822Z,100.00
2023-09-02T04:00:00.882Z,100.00
2023-09-02T04:02:30.246Z,100.00
2023-09-02T04:04:57.627Z,100.00
2023-09-02T04:07:25.272Z,100.00
2023-09-02T04:09:52.545Z,100.00
2023-09-02T04:12:19.676Z,100.00
2023-09-02T04:14:46.738Z,100.00
2023-09-02T04:17:13.987Z,100.00
2023-09-02T04:19:42.340Z,100.00
2023-09-02T04:22:09.908Z,100.00
2023-09-02T04:24:37.238Z,100.00
2023-09-02T04:27:04.633Z,100.00
2023-09-02T04:29:31.661Z,100.00
2023-09-02T04:31:59.411Z,100.00
2023-09-02T04:34:27.950Z,100.00
2023-09-02T04:36:55.105Z,100.00
2023-09-02T04:39:22.304Z,100.00
2023-09-02T04:41:49.446Z,100.00
2023-09-02T04:44:18.965Z,100.00
2023-09-02T04:46:46.215Z,100.00
2023-09-02T04:49:14.021Z,100.00
2023-09-02T04:51:41.204Z,100.00
2023-09-02T04:54:08.549Z,100.00
2023-09-02T04:56:35.731Z,100.00
2023-09-02T04:59:03.227Z,100.00
2023-09-02T05:01:30.921Z,100.00
2023-09-02T05:03:59.813Z,100.00
2023-09-02T05:06:26.926Z,100.00
2023-09-02T05:08:55.716Z,100.00
2023-09-02T05:11:26.061Z,100.00
2023-09-02T05:13:56.877Z,100.00
2023-09-02T05:16:24.280Z,100.00
2023-09-02T05:18:52.518Z,100.00
2023-09-02T05:21:19.437Z,100.00
2023-09-02T05:23:47.561Z,100.00
2023-09-02T05:26:15.020Z,99.94
2023-09-02T05:28:42.355Z,99.73
2023-09-02T05:31:09.636Z,99.16
2023-09-02T05:33:36.933Z,98.75
2023-09-02T05:36:04.043Z,97.91
2023-09-02T05:38:31.188Z,96.80
2023-09-02T05:40:58.185Z,96.18
2023-09-02T05:43:30.293Z,95.75
2023-09-02T05:46:02.907Z,95.40
2023-09-02T05:48:31.531Z,94.85
2023-09-02T05:50:58.865Z,93.48
2023-09-02T05:53:25.998Z,93.21
2023-09-02T05:55:55.740Z,92.13
2023-09-02T05:58:28.304Z,91.49
2023-09-02T06:00:55.473Z,90.69
2023-09-02T06:03:23.069Z,89.88
2023-09-02T06:05:50.639Z,88.78
2023-09-02T06:08:19.035Z,87.40
2023-09-02T06:10:57.249Z,87.55
2023-09-02T06:13:24.245Z,87.21
2023-09-02T06:15:51.455Z,85.76
2023-09-02T06:18:18.532Z,83.67
2023-09-02T06:20:45.571Z,83.01
2023-09-02T06:23:12.764Z,82.98
2023-09-02T06:25:40.060Z,81.95
2023-09-02T06:28:07.035Z,80.59
2023-09-02T06:30:34.179Z,77.77
2023-09-02T06:33:01.128Z,77.96
2023-09-02T06:35:31.519Z,76.27
2023-09-02T06:37:58.615Z,76.29
2023-09-02T06:40:25.759Z,76.12
2023-09-02T06:42:53.007Z,75.87
2023-09-02T06:45:20.266Z,74.52
2023-09-02T06:47:47.701Z,74.59
2023-09-02T06:50:14.887Z,72.89
2023-09-02T06:52:42.173Z,72.26
2023-09-02T06:55:09.408Z,70.19
2023-09-02T06:57:36.783Z,68.90
2023-09-02T07:00:04.244Z,68.39
2023-09-02T07:02:31.321Z,67.47
2023-09-02T07:05:00.275Z,68.40
2023-09-02T07:07:27.502Z,68.80
2023-09-02T07:09:54.540Z,69.31
2023-09-02T07:12:21.775Z,68.28
2023-09-02T07:14:49.090Z,69.68
2023-09-02T07:17:16.154Z,68.62
2023-09-02T07:19:43.474Z,68.95
2023-09-02T07:22:10.973Z,68.60
2023-09-02T07:24:37.983Z,68.09
2023-09-02T07:27:05.572Z,67.57
2023-09-02T07:29:32.814Z,65.67
2023-09-02T07:32:00.134Z,64.15
2023-09-02T07:34:27.251Z,63.42
2023-09-02T07:36:54.635Z,63.56
2023-09-02T07:39:21.581Z,63.73
2023-09-02T07:41:50.153Z,62.38
2023-09-02T07:44:17.231Z,62.07
2023-09-02T07:46:44.710Z,61.29
2023-09-02T07:49:11.695Z,60.54
2023-09-02T07:51:39.101Z,59.37
2023-09-02T07:54:06.148Z,59.65
2023-09-02T07:56:32.987Z,60.08
2023-09-02T07:59:00.157Z,60.67
2023-09-02T08:01:28.451Z,60.23
2023-09-02T08:03:55.947Z,60.95
2023-09-02T08:06:23.131Z,60.69
2023-09-02T08:08:50.447Z,59.82
2023-09-02T08:11:19.285Z,58.94
2023-09-02T08:13:46.669Z,59.62
2023-09-02T08:16:13.767Z,58.74
2023-09-02T08:18:40.962Z,59.16
2023-09-02T08:21:10.055Z,58.76
2023-09-02T08:23:39.828Z,57.90
2023-09-02T08:26:11.712Z,57.35
2023-09-02T08:28:38.781Z,57.17
2023-09-02T08:31:06.200Z,57.32
2023-09-02T08:33:33.193Z,57.19
2023-09-02T08:36:00.538Z,57.51
2023-09-02T08:38:27.813Z,57.02
2023-09-02T08:40:55.727Z,57.55
2023-09-02T08:43:23.373Z,57.13
2023-09-02T08:45:54.048Z,55.95
2023-09-02T08:48:26.963Z,56.47
2023-09-02T08:50:56.051Z,56.10
2023-09-02T08:53:25.176Z,56.14
2023-09-02T08:55:54.145Z,54.79
2023-09-02T08:58:21.669Z,53.96
2023-09-02T09:00:50.072Z,54.14
2023-09-02T09:03:20.197Z,54.07
2023-09-02T09:05:49.982Z,53.87
2023-09-02T09:08:18.164Z,54.88
2023-09-02T09:10:46.201Z,53.34
2023-09-02T09:13:15.169Z,52.91
2023-09-02T09:15:43.468Z,53.23
2023-09-02T09:18:13.158Z,53.40
2023-09-02T09:20:41.084Z,51.94
2023-09-02T09:23:09.522Z,52.89
2023-09-02T09:25:37.234Z,53.62
2023-09-02T09:28:12.610Z,52.60
2023-09-02T09:30:40.047Z,51.63
2023-09-02T09:33:08.407Z,52.53
2023-09-02T09:35:36.730Z,52.66
2023-09-02T09:38:04.612Z,52.19
2023-09-02T09:40:40.015Z,50.58
2023-09-02T09:43:18.635Z,50.19
2023-09-02T09:45:53.319Z,50.37
2023-09-02T09:48:20.880Z,49.85
2023-09-02T09:50:47.928Z,50.64
2023-09-02T09:53:15.268Z,50.05
2023-09-02T09:55:42.484Z,49.29
2023-09-02T09:58:10.017Z,48.38
2023-09-02T10:00:37.532Z,48.01
2023-09-02T10:03:05.759Z,47.69
2023-09-02T10:05:35.243Z,46.93
2023-09-02T10:08:08.780Z,47.09
2023-09-02T10:10:40.191Z,47.03
2023-09-02T10:13:07.360Z,47.45
2023-09-02T10:15:34.660Z,46.55
2023-09-02T10:18:07.331Z,46.72
2023-09-02T10:20:36.756Z,45.84
2023-09-02T10:23:11.637Z,45.37
2023-09-02T10:25:59.017Z,45.94
2023-09-02T10:28:38.344Z,45.98
2023-09-02T10:31:23.243Z,45.83
2023-09-02T10:34:08.769Z,45.51
2023-09-02T10:36:40.325Z,46.22
2023-09-02T10:39:14.478Z,46.14
2023-09-02T10:41:42.797Z,46.70
2023-09-02T10:44:11.960Z,47.38
2023-09-02T10:46:40.440Z,48.42
2023-09-02T10:49:08.194Z,46.97
2023-09-02T10:51:35.431Z,47.63
2023-09-02T10:54:03.578Z,46.50
2023-09-02T10:56:36.053Z,45.06
2023-09-02T10:59:05.468Z,45.61
2023-09-02T11:01:49.519Z,46.85
2023-09-02T11:05:00.853Z,46.72
2023-09-02T11:07:28.523Z,45.80
2023-09-02T11:09:57.499Z,46.10
2023-09-02T11:12:25.693Z,46.18
2023-09-02T11:15:08.145Z,45.77
2023-09-02T11:17:45.270Z,45.79
2023-09-02T11:20:17.035Z,44.00
2023-09-02T11:22:57.441Z,43.75
2023-09-02T11:25:34.462Z,42.19
2023-09-02T11:28:14.900Z,40.74
2023-09-02T11:31:04.032Z,39.81
2023-09-02T11:33:31.694Z,39.69
2023-09-02T11:36:07.333Z,40.09
2023-09-02T11:38:35.726Z,40.26
2023-09-02T11:41:03.553Z,40.66
2023-09-02T11:43:35.930Z,41.38
2023-09-02T11:46:04.706Z,41.17
2023-09-02T11:48:32.757Z,40.60
2023-09-02T11:51:00.246Z,40.57
2023-09-02T11:53:32.050Z,39.41
2023-09-02T11:55:59.219Z,38.75
2023-09-02T11:58:26.699Z,38.36
2023-09-02T12:00:53.758Z,37.31
2023-09-02T12:03:25.865Z,37.35
2023-09-02T12:05:55.179Z,37.11
2023-09-02T12:08:23.287Z,36.54
2023-09-02T12:10:52.772Z,37.26
2023-09-02T12:13:30.965Z,36.49
2023-09-02T12:15:58.174Z,36.74
2023-09-02T12:18:26.495Z,37.60
2023-09-02T12:20:53.969Z,36.83
2023-09-02T12:23:21.654Z,36.83
2023-09-02T12:26:10.348Z,36.84
2023-09-02T12:28:37.904Z,36.54
2023-09-02T12:31:06.091Z,35.96
2023-09-02T12:33:35.541Z,35.43
2023-09-02T12:36:05.099Z,35.09
2023-09-02T12:38:51.887Z,35.01
2023-09-02T12:41:19.031Z,35.92
2023-09-02T12:43:46.247Z,35.34
2023-09-02T12:46:18.966Z,35.68
2023-09-02T12:48:47.786Z,34.11
2023-09-02T12:51:29.437Z,35.01
2023-09-02T12:53:58.764Z,33.90
2023-09-02T12:56:25.919Z,33.69
2023-09-02T12:58:53.074Z,33.70
2023-09-02T13:01:20.528Z,33.88
2023-09-02T13:03:47.713Z,33.92
2023-09-02T13:06:14.977Z,34.50
2023-09-02T13:08:45.772Z,35.02
2023-09-02T13:11:13.044Z,34.86
2023-09-02T13:13:40.240Z,34.78
2023-09-02T13:16:07.517Z,35.32
2023-09-02T13:18:34.481Z,34.89
2023-09-02T13:21:01.784Z,34.83
2023-09-02T13:23:32.728Z,34.33
2023-09-02T13:26:01.252Z,33.95
2023-09-02T13:28:36.170Z,33.57
2023-09-02T13:31:04.242Z,33.93
2023-09-02T13:33:31.774Z,34.44
2023-09-02T13:36:00.619Z,34.32
2023-09-02T13:38:29.619Z,33.88
2023-09-02T13:40:56.812Z,33.94
2023-09-02T13:43:25.831Z,33.94
2023-09-02T13:45:53.600Z,34.96
2023-09-02T13:48:22.177Z,34.82
2023-09-02T13:50:51.847Z,34.90
2023-09-02T13:53:20.674Z,35.10
2023-09-02T13:55:49.678Z,35.14
2023-09-02T13:58:22.867Z,36.05
2023-09-02T14:00:52.984Z,36.19
2023-09-02T14:03:27.778Z,36.64
2023-09-02T14:05:56.571Z,36.39
2023-09-02T14:08:38.808Z,36.63
2023-09-02T14:11:08.991Z,37.17
2023-09-02T14:13:41.178Z,37.24
2023-09-02T14:16:09.965Z,37.40
2023-09-02T14:18:37.386Z,37.65
2023-09-02T14:21:04.606Z,38.01
2023-09-02T14:23:38.339Z,38.35
2023-09-02T14:26:06.565Z,38.01
2023-09-02T14:28:35.234Z,38.23
2023-09-02T14:31:02.471Z,38.36
2023-09-02T14:33:29.895Z,38.69
2023-09-02T14:35:57.258Z,38.09
2023-09-02T14:38:24.581Z,38.20
2023-09-02T14:40:51.547Z,38.49
2023-09-02T14:43:18.798Z,38.55
2023-09-02T14:45:46.112Z,38.61
2023-09-02T14:48:14.004Z,38.38
2023-09-02T14:50:42.620Z,36.96
2023-09-02T14:53:09.929Z,37.47
2023-09-02T14:55:37.382Z,37.02
2023-09-02T14:58:04.583Z,37.21
2023-09-02T15:00:32.150Z,37.63
2023-09-02T15:03:02.954Z,37.96
2023-09-02T15:05:34.097Z,38.20
2023-09-02T15:08:04.173Z,38.72
2023-09-02T15:10:31.324Z,39.42
2023-09-02T15:13:03.344Z,39.81
2023-09-02T15:15:39.963Z,40.56
2023-09-02T15:18:13.820Z,40.36
2023-09-02T15:20:41.894Z,40.17
2023-09-02T15:23:09.526Z,40.41
2023-09-02T15:25:36.733Z,40.87
2023-09-02T15:28:07.394Z,41.47
2023-09-02T15:30:35.049Z,41.69
2023-09-02T15:33:04.763Z,40.86
2023-09-02T15:35:33.934Z,41.43
2023-09-02T15:38:01.446Z,42.04
2023-09-02T15:40:31.500Z,42.04
2023-09-02T15:43:03.889Z,42.26
2023-09-02T15:45:33.726Z,42.70
2023-09-02T15:48:00.970Z,42.78
2023-09-02T15:50:30.032Z,43.20
2023-09-02T15:52:57.178Z,42.88
2023-09-02T15:55:24.934Z,43.38
2023-09-02T15:57:53.411Z,43.43
2023-09-02T16:00:24.359Z,43.69
2023-09-02T16:02:52.172Z,43.67
2023-09-02T16:05:19.735Z,44.02
2023-09-02T16:07:51.272Z,44.51
2023-09-02T16:10:19.071Z,44.81
2023-09-02T16:12:46.463Z,44.69
2023-09-02T16:15:15.570Z,45.23
2023-09-02T16:17:43.501Z,45.34
2023-09-02T16:20:11.905Z,45.71
2023-09-02T16:22:43.042Z,45.70
2023-09-02T16:25:11.425Z,46.46
2023-09-02T16:27:40.117Z,46.14
2023-09-02T16:30:10.413Z,46.32
2023-09-02T16:32:38.396Z,47.08
2023-09-02T16:35:06.589Z,46.94
2023-09-02T16:37:44.879Z,47.45
2023-09-02T16:40:12.824Z,48.05
2023-09-02T16:42:42.360Z,47.83
2023-09-02T16:45:12.812Z,48.26
2023-09-02T16:47:53.513Z,48.85
2023-09-02T16:50:21.385Z,49.46
2023-09-02T16:52:53.842Z,49.77
2023-09-02T16:55:26.370Z,50.05
2023-09-02T16:57:54.387Z,50.91
2023-09-02T17:00:25.804Z,50.82
2023-09-02T17:02:53.663Z,51.67
2023-09-02T17:05:25.487Z,52.10
2023-09-02T17:07:54.591Z,52.40
2023-09-02T17:10:24.526Z,52.73
2023-09-02T17:12:52.921Z,53.64
2023-09-02T17:15:22.528Z,53.90
2023-09-02T17:17:51.482Z,54.65
2023-09-02T17:20:24.648Z,54.97
2023-09-02T17:22:52.054Z,55.16
2023-09-02T17:25:19.271Z,56.17
2023-09-02T17:27:49.712Z,56.65
2023-09-02T17:30:20.446Z,57.00
2023-09-02T17:32:50.719Z,57.66
2023-09-02T17:35:18.062Z,57.58
2023-09-02T17:37:46.171Z,57.89
2023-09-02T17:40:14.626Z,57.58
2023-09-02T17:42:45.212Z,56.72
2023-09-02T17:45:13.853Z,56.86
2023-09-02T17:47:41.446Z,57.69
2023-09-02T17:50:10.920Z,58.73
2023-09-02T17:52:38.785Z,59.10
2023-09-02T17:55:06.786Z,58.94
2023-09-02T17:57:36.070Z,59.40
2023-09-02T18:00:07.336Z,59.19
2023-09-02T18:02:36.771Z,59.48
2023-09-02T18:05:05.243Z,59.93
2023-09-02T18:07:33.103Z,60.35
2023-09-02T18:10:01.042Z,60.68
2023-09-02T18:12:28.190Z,61.21
2023-09-02T18:14:55.232Z,61.63
2023-09-02T18:17:22.224Z,62.12
2023-09-02T18:19:49.598Z,62.56
2023-09-02T18:22:16.664Z,62.88
2023-09-02T18:24:52.394Z,63.42
2023-09-02T18:27:19.441Z,64.07
2023-09-02T18:29:46.549Z,64.46
2023-09-02T18:32:13.841Z,64.31
2023-09-02T18:34:41.073Z,64.79
2023-09-02T18:37:08.141Z,65.08
2023-09-02T18:39:35.367Z,65.67
2023-09-02T18:42:02.381Z,65.98
2023-09-02T18:44:31.001Z,66.76
2023-09-02T18:46:57.972Z,67.40
2023-09-02T18:49:25.112Z,67.80
2023-09-02T18:51:52.236Z,68.54
2023-09-02T18:54:19.112Z,68.82
2023-09-02T18:56:46.197Z,69.78
2023-09-02T18:59:13.267Z,70.15
2023-09-02T19:01:40.096Z,70.44
2023-09-02T19:04:09.236Z,71.13
2023-09-02T19:06:36.982Z,71.82
2023-09-02T19:09:04.613Z,71.83
2023-09-02T19:11:32.003Z,71.60
2023-09-02T19:13:59.234Z,71.21
2023-09-02T19:16:26.942Z,71.90
2023-09-02T19:18:55.132Z,72.73
2023-09-02T19:21:23.462Z,74.01
2023-09-02T19:23:51.068Z,74.05
2023-09-02T19:26:18.329Z,75.01
2023-09-02T19:28:45.732Z,75.83
2023-09-02T19:31:12.760Z,76.68
2023-09-02T19:33:40.050Z,76.93
2023-09-02T19:36:17.496Z,77.61
2023-09-02T19:38:44.703Z,77.83
2023-09-02T19:41:12.089Z,77.94
2023-09-02T19:43:40.174Z,78.60
2023-09-02T19:46:08.321Z,78.42
2023-09-02T19:48:35.659Z,78.56
2023-09-02T19:51:02.846Z,79.23
2023-09-02T19:53:30.913Z,79.53
2023-09-02T19:56:00.469Z,79.17
2023-09-02T19:58:27.819Z,79.44
2023-09-02T20:00:54.976Z,79.18
2023-09-02T20:03:23.503Z,79.22
2023-09-02T20:05:50.677Z,79.83
2023-09-02T20:08:17.932Z,80.38
2023-09-02T20:10:45.657Z,80.82
2023-09-02T20:13:12.879Z,80.42
2023-09-02T20:15:40.207Z,81.28
2023-09-02T20:18:07.136Z,81.73
2023-09-02T20:20:34.220Z,81.93
2023-09-02T20:23:01.458Z,82.78
2023-09-02T20:25:33.063Z,83.43
2023-09-02T20:28:00.563Z,84.15
2023-09-02T20:30:27.598Z,84.82
2023-09-02T20:32:54.843Z,85.57
2023-09-02T20:35:21.921Z,85.82
2023-09-02T20:37:48.996Z,86.52
2023-09-02T20:40:16.241Z,86.57
2023-09-02T20:42:43.176Z,87.30
2023-09-02T20:45:10.640Z,87.74
2023-09-02T20:47:37.865Z,88.25
2023-09-02T20:50:05.114Z,88.98
2023-09-02T20:52:32.359Z,90.17
2023-09-02T20:55:00.175Z,91.40
2023-09-02T20:57:56.240Z,91.75
2023-09-02T21:00:30.500Z,91.89
2023-09-02T21:02:57.936Z,91.87
2023-09-02T21:05:55.705Z,92.34
2023-09-02T21:08:23.642Z,92.58
2023-09-02T21:10:53.305Z,92.75
2023-09-02T21:13:20.175Z,92.95
2023-09-02T21:15:47.391Z,93.26
2023-09-02T21:18:14.528Z,93.32
2023-09-02T21:20:43.347Z,93.38
2023-09-02T21:23:10.617Z,93.67
2023-09-02T21:25:37.641Z,93.54
2023-09-02T21:28:38.145Z,93.73
2023-09-02T21:31:09.226Z,94.44
2023-09-02T21:33:36.500Z,95.04
2023-09-02T21:36:04.099Z,95.18
2023-09-02T21:38:32.789Z,95.11
2023-09-02T21:41:04.310Z,95.89
2023-09-02T21:43:37.269Z,96.79
2023-09-02T21:46:11.587Z,97.18
2023-09-02T21:48:40.242Z,97.48
2023-09-02T21:51:09.010Z,97.56
2023-09-02T21:53:40.352Z,98.30
2023-09-02T21:56:07.256Z,99.91
2023-09-02T21:58:34.578Z,100.00
2023-09-02T22:01:02.814Z,100.00
2023-09-02T22:03:30.807Z,100.00
2023-09-02T22:06:07.058Z,100.00
2023-09-02T22:08:34.176Z,100.00
2023-09-02T22:11:01.598Z,100.00
2023-09-02T22:13:29.177Z,99.28
2023-09-02T22:15:57.787Z,99.69
2023-09-02T22:18:26.614Z,100.00
2023-09-02T22:20:55.566Z,100.00
2023-09-02T22:23:24.189Z,100.00
2023-09-02T22:25:51.601Z,100.00
2023-09-02T22:28:18.460Z,100.00
2023-09-02T22:30:45.471Z,100.00
2023-09-02T22:33:13.012Z,100.00
2023-09-02T22:35:40.012Z,100.00
2023-09-02T22:38:10.025Z,100.00
2023-09-02T22:40:37.928Z,100.00
2023-09-02T22:43:04.917Z,100.00
2023-09-02T22:45:37.113Z,100.00
2023-09-02T22:48:05.293Z,100.00
2023-09-02T22:50:33.693Z,100.00
2023-09-02T22:53:03.680Z,100.00
2023-09-02T22:55:33.434Z,100.00
2023-09-02T22:58:08.132Z,100.00
2023-09-02T23:00:36.551Z,100.00
2023-09-02T23:03:04.663Z,100.00
2023-09-02T23:05:32.285Z,100.00
2023-09-02T23:08:01.189Z,100.00
2023-09-02T23:10:29.865Z,100.00
2023-09-02T23:12:57.463Z,100.00
2023-09-02T23:15:24.503Z,100.00
2023-09-02T23:17:53.418Z,100.00
2023-09-02T23:20:21.762Z,100.00
2023-09-02T23:22:49.973Z,100.00
2023-09-02T23:25:16.866Z,100.00
2023-09-02T23:27:53.430Z,100.00
2023-09-02T23:30:21.254Z,100.00
2023-09-02T23:32:50.379Z,100.00
2023-09-02T23:35:17.598Z,100.00
2023-09-02T23:37:46.206Z,100.00
2023-09-02T23:40:16.360Z,100.00
2023-09-02T23:42:44.339Z,100.00
2023-09-02T23:45:12.409Z,100.00
2023-09-02T23:47:39.405Z,100.00
2023-09-02T23:50:07.304Z,100.00
2023-09-02T23:52:35.208Z,100.00
2023-09-02T23:55:03.152Z,100.00
2023-09-02T23:57:30.110Z,100.00
2023-09-02T23:59:57.344Z,100.00
